Nasudden, Sweden

6:07 AM CEST on October 22, 2014 (GMT +0200)
Visby | Change Station
CLOSE
Current Station
Airport
Location: Visby Flygplats,
Elevation: 154 ft
Nearby Weather Stations

Elev 154 ft 57.66 °N, 18.35 °E | Updated 17 minutes ago

Mostly Cloudy
Mostly Cloudy
43 °F
Feels Like 34 °F
N
20
Wind Variable Wind from East

Today
High -- | Low -- °F
--% Chance of Precip.
Yesterday
High -- | Low -- °F
Precip. -- in
7:35 AM 5:27 PM
Waning Crescent, 3% visible
Pressure 29.74 in
Visibility 6.2 miles
Clouds Mostly Cloudy 1300 ft
Windchill 34 °F
Dew Point 39 °F
Humidity 87%
Rainfall 0.00 in
Snow Depth Not available.
UV 0 out of 12
Pollen Not available.
Air Quality Not available.
Flu Activity Not available.
METAR ESSV 220350Z 10017KT 9999 BKN013 06/04 Q1007

More Conditions Fewer Conditions

Pressure 29.74 in
Visibility 6.2 miles
Clouds Mostly Cloudy 1300 ft
Windchill 34 °F
Dew Point 39 °F
Humidity 87%
Rainfall 0.00 in
Snow Depth Not available.
UV 0 out of 12
Pollen Not available.
Air Quality Not available.
Flu Activity Not available.
METAR ESSV 220350Z 10017KT 9999 BKN013 06/04 Q1007

More Conditions Fewer Conditions

10-Day Weather Forecast

Almanac

Astronomy

Oct. 22, 2014 Rise Set
Actual Time 7:35 AM CEST 5:27 PM CEST
Civil Twilight 6:55 AM CEST 6:06 PM CEST
Nautical Twilight 6:11 AM CEST 6:50 PM CEST
Astronomical Twilight 5:26 AM CEST 7:35 PM CEST
Moon 5:41 AM CEST 4:56 PM CEST
Length of Visible Light 11h 10m
Length of Day
9h 51m
Tomorrow will be 4m 41s shorter.
Waning Crescent, 3% of the Moon is Illuminated
Today
Waning Crescent
Oct 23
New
Oct 30
First Quarter
Nov 6
Full
Nov 14
Last Quarter

Yesterday's Extremes

Country Highs Country Lows

Community

WunderPhotos

Upload Photos

1,763,879 photos uploaded!

Nearby

Snow Depth

Not available.

Earthquake Activity

City Distance Mag. Time & Date
No recent earthquake activity has been reported nearby.
Minimum magnitude displayed is 2.5.

Coastal Water Temperatures

Place Temperature
No Stations Reporting

Nearby Weather Stations